createdAt,value
2023-01-29T00:05:27.636Z,-3.95
2023-01-29T00:10:50.248Z,-3.96
2023-01-29T00:16:12.562Z,-3.94
2023-01-29T00:21:35.110Z,-3.91
2023-01-29T00:26:57.086Z,-3.89
2023-01-29T00:32:21.677Z,-3.81
2023-01-29T00:37:46.750Z,-3.78
2023-01-29T00:43:26.869Z,-3.75
2023-01-29T00:48:48.949Z,-3.73
2023-01-29T00:54:10.983Z,-4.03
2023-01-29T00:59:35.857Z,-3.83
2023-01-29T01:04:57.963Z,-3.86
2023-01-29T01:10:32.804Z,-4.01
2023-01-29T01:15:54.875Z,-4.01
2023-01-29T01:21:16.960Z,-3.98
2023-01-29T01:26:39.664Z,-3.71
2023-01-29T01:32:02.191Z,-3.81
2023-01-29T01:37:24.467Z,-3.97
2023-01-29T01:43:01.302Z,-3.67
2023-01-29T01:48:34.223Z,-3.98
2023-01-29T01:54:03.147Z,-3.77
2023-01-29T01:59:25.662Z,-3.73
2023-01-29T02:05:09.360Z,-3.72
2023-01-29T02:10:38.261Z,-3.71
2023-01-29T02:16:00.748Z,-3.81
2023-01-29T02:21:41.510Z,-3.73
2023-01-29T02:27:09.878Z,-3.72
2023-01-29T02:33:36.290Z,-3.75
2023-01-29T02:39:26.679Z,-3.84
2023-01-29T02:44:53.252Z,-3.85
2023-01-29T02:50:54.440Z,-3.85
2023-01-29T02:56:25.253Z,-4.16
2023-01-29T03:01:59.353Z,-4.08
2023-01-29T03:07:46.661Z,-4.13
2023-01-29T03:13:38.684Z,-3.91
2023-01-29T03:19:09.860Z,-4.13
2023-01-29T03:25:11.290Z,-3.93
2023-01-29T03:31:00.759Z,-3.97
2023-01-29T03:36:49.880Z,-3.93
2023-01-29T03:42:49.338Z,-3.95
2023-01-29T03:48:53.295Z,-4.22
2023-01-29T03:54:22.546Z,-3.92
2023-01-29T04:00:15.700Z,-3.96
2023-01-29T04:06:06.009Z,-3.94
2023-01-29T04:11:31.203Z,-4.10
2023-01-29T04:16:58.328Z,-4.03
2023-01-29T04:22:38.232Z,-4.03
2023-01-29T04:28:41.574Z,-4.00
2023-01-29T04:34:27.748Z,-3.98
2023-01-29T04:40:47.008Z,-3.97
2023-01-29T04:46:37.222Z,-4.04
2023-01-29T04:52:12.586Z,-4.08
2023-01-29T04:57:55.637Z,-4.18
2023-01-29T05:03:17.927Z,-4.14
2023-01-29T05:08:41.746Z,-4.30
2023-01-29T05:14:07.840Z,-4.33
2023-01-29T05:19:30.126Z,-4.38
2023-01-29T05:24:52.267Z,-4.30
2023-01-29T05:30:15.114Z,-4.16
2023-01-29T05:35:37.326Z,-4.22
2023-01-29T05:41:00.205Z,-4.31
2023-01-29T05:46:22.321Z,-4.33
2023-01-29T05:51:48.469Z,-4.19
2023-01-29T05:57:47.636Z,-4.09
2023-01-29T06:03:12.131Z,-4.19
2023-01-29T06:08:34.488Z,-4.16
2023-01-29T06:13:56.715Z,-4.13
2023-01-29T06:19:21.381Z,-4.06
2023-01-29T06:24:43.224Z,-3.96
2023-01-29T06:30:06.652Z,-3.92
2023-01-29T06:35:29.260Z,-3.88
2023-01-29T06:40:51.893Z,-3.89
2023-01-29T06:46:14.228Z,-3.82
2023-01-29T06:51:37.381Z,-3.86
2023-01-29T06:56:59.171Z,-3.65
2023-01-29T07:02:21.526Z,-3.77
2023-01-29T07:07:43.708Z,-3.61
2023-01-29T07:13:05.766Z,-3.62
2023-01-29T07:18:31.899Z,-3.50
2023-01-29T07:23:53.898Z,-3.60
2023-01-29T07:29:15.912Z,-3.43
2023-01-29T07:34:37.997Z,-3.54
2023-01-29T07:40:00.257Z,-3.53
2023-01-29T07:45:22.667Z,-3.51
2023-01-29T07:50:44.823Z,-3.35
2023-01-29T07:56:06.959Z,-3.44
2023-01-29T08:01:28.902Z,-3.33
2023-01-29T08:06:51.174Z,-3.26
2023-01-29T08:12:13.060Z,-3.10
2023-01-29T08:17:36.852Z,-3.14
2023-01-29T08:23:08.629Z,-3.16
2023-01-29T08:28:30.947Z,-2.97
2023-01-29T08:33:55.156Z,-2.93
2023-01-29T08:39:17.086Z,-3.08
2023-01-29T08:44:45.270Z,-3.31
2023-01-29T08:50:08.363Z,-3.21
2023-01-29T08:55:23.351Z,-3.05
2023-01-29T09:00:45.607Z,-2.96
2023-01-29T09:06:09.438Z,-3.02
2023-01-29T09:11:31.439Z,-3.10
2023-01-29T09:16:53.357Z,-3.17
2023-01-29T09:22:17.109Z,-3.13
2023-01-29T09:27:39.376Z,-3.09
2023-01-29T09:33:07.103Z,-3.15
2023-01-29T09:38:32.104Z,-3.03
2023-01-29T09:44:02.878Z,-3.04
2023-01-29T09:49:49.100Z,-3.14
2023-01-29T09:55:31.549Z,-3.07
2023-01-29T10:01:21.796Z,-3.06
2023-01-29T10:07:01.908Z,-3.19
2023-01-29T10:12:54.453Z,-3.00
2023-01-29T10:18:39.228Z,-3.02
2023-01-29T10:24:31.718Z,-2.98
2023-01-29T10:29:56.087Z,-3.28
2023-01-29T10:35:47.432Z,-3.06
2023-01-29T10:41:40.366Z,-3.24
2023-01-29T10:47:05.323Z,-3.05
2023-01-29T10:52:36.402Z,-3.05
2023-01-29T10:58:35.343Z,-3.13
2023-01-29T11:04:04.990Z,-3.10
2023-01-29T11:10:05.321Z,-2.96
2023-01-29T11:15:37.249Z,-3.03
2023-01-29T11:21:07.289Z,-3.03
2023-01-29T11:26:30.336Z,-3.03
2023-01-29T11:31:54.438Z,-3.12
2023-01-29T11:37:17.874Z,-3.03
2023-01-29T11:42:41.650Z,-3.03
2023-01-29T11:48:04.238Z,-3.04
2023-01-29T11:53:35.569Z,-2.97
2023-01-29T11:59:06.743Z,-3.26
2023-01-29T12:04:29.301Z,-3.02
2023-01-29T12:09:55.701Z,-3.05
2023-01-29T12:15:36.970Z,-3.03
2023-01-29T12:21:03.265Z,-3.08
2023-01-29T12:26:32.267Z,-3.18
2023-01-29T12:32:18.456Z,-3.17
2023-01-29T12:37:53.355Z,-3.09
2023-01-29T12:43:25.726Z,-3.15
2023-01-29T12:48:50.208Z,-3.15
2023-01-29T12:54:18.880Z,-3.13
2023-01-29T12:59:47.970Z,-3.23
2023-01-29T13:05:49.341Z,-3.15
2023-01-29T13:11:40.403Z,-3.19
2023-01-29T13:17:34.364Z,-3.17
2023-01-29T13:23:00.020Z,-3.13
2023-01-29T13:28:27.390Z,-3.14
2023-01-29T13:34:10.598Z,-3.20
2023-01-29T13:39:47.080Z,-3.17
2023-01-29T13:45:18.614Z,-3.18
2023-01-29T13:50:48.317Z,-3.16
2023-01-29T13:56:28.981Z,-3.17
2023-01-29T14:01:51.095Z,-3.18
2023-01-29T14:07:44.280Z,-3.19
2023-01-29T14:13:11.918Z,-3.18
2023-01-29T14:18:36.732Z,-3.21
2023-01-29T14:24:20.612Z,-3.17
2023-01-29T14:29:42.801Z,-3.17
2023-01-29T14:35:18.158Z,-3.17
2023-01-29T14:40:41.887Z,-3.28
2023-01-29T14:46:36.086Z,-3.24
2023-01-29T14:52:00.307Z,-3.36
2023-01-29T14:57:24.482Z,-3.47
2023-01-29T15:02:47.319Z,-3.31
2023-01-29T15:08:34.766Z,-3.34
2023-01-29T15:14:15.930Z,-3.27
2023-01-29T15:19:48.213Z,-3.42
2023-01-29T15:25:19.861Z,-3.49
2023-01-29T15:30:44.514Z,-3.46
2023-01-29T15:36:08.423Z,-3.45
2023-01-29T15:41:31.094Z,-3.51
2023-01-29T15:47:00.510Z,-3.54
2023-01-29T15:52:30.742Z,-3.54
2023-01-29T15:57:56.398Z,-3.44
2023-01-29T16:03:21.505Z,-3.50
2023-01-29T16:08:49.027Z,-3.46
2023-01-29T16:14:19.625Z,-3.43
2023-01-29T16:19:41.972Z,-3.54
2023-01-29T16:25:19.416Z,-3.36
2023-01-29T16:30:45.341Z,-3.44
2023-01-29T16:36:22.317Z,-3.42
2023-01-29T16:41:44.292Z,-3.44
2023-01-29T16:47:27.962Z,-3.46
2023-01-29T16:53:01.504Z,-3.67
2023-01-29T16:58:28.900Z,-3.60
2023-01-29T17:04:08.030Z,-3.66
2023-01-29T17:09:36.107Z,-3.71
2023-01-29T17:15:04.543Z,-3.75
2023-01-29T17:20:27.946Z,-3.83
2023-01-29T17:25:50.776Z,-3.76
2023-01-29T17:31:13.112Z,-3.59
2023-01-29T17:36:35.360Z,-3.76
2023-01-29T17:41:59.364Z,-3.64
2023-01-29T17:47:21.913Z,-3.79
2023-01-29T17:52:46.005Z,-3.72
2023-01-29T17:58:18.278Z,-3.77
2023-01-29T18:03:42.742Z,-3.81
2023-01-29T18:09:06.136Z,-3.88
2023-01-29T18:14:28.389Z,-3.79
2023-01-29T18:19:50.959Z,-3.76
2023-01-29T18:25:20.063Z,-3.73
2023-01-29T18:30:43.897Z,-3.89
2023-01-29T18:36:07.847Z,-3.73
2023-01-29T18:41:33.142Z,-3.73
2023-01-29T18:46:56.160Z,-3.69
2023-01-29T18:52:20.176Z,-3.87
2023-01-29T18:58:25.003Z,-3.89
2023-01-29T19:03:28.554Z,-3.87
2023-01-29T19:08:50.966Z,-3.82
2023-01-29T19:14:13.235Z,-3.81
2023-01-29T19:19:35.865Z,-3.84
2023-01-29T19:25:00.680Z,-3.66
2023-01-29T19:30:22.946Z,-3.88
2023-01-29T19:35:46.086Z,-3.77
2023-01-29T19:41:08.126Z,-3.81
2023-01-29T19:46:30.880Z,-3.84
2023-01-29T19:51:56.584Z,-3.81
2023-01-29T19:57:23.355Z,-3.78
2023-01-29T20:02:48.820Z,-3.69
2023-01-29T20:08:13.975Z,-3.74
2023-01-29T20:13:36.478Z,-3.80
2023-01-29T20:19:13.857Z,-3.91
2023-01-29T20:24:40.127Z,-3.80
2023-01-29T20:30:02.133Z,-3.80
2023-01-29T20:35:25.456Z,-3.82
2023-01-29T20:40:47.679Z,-3.88
2023-01-29T20:46:10.067Z,-3.77
2023-01-29T20:51:32.716Z,-3.70
2023-01-29T20:57:00.678Z,-3.77
2023-01-29T21:02:23.179Z,-3.81
2023-01-29T21:07:45.565Z,-3.64
2023-01-29T21:13:07.923Z,-3.77
2023-01-29T21:18:30.625Z,-3.74
2023-01-29T21:23:55.227Z,-3.80
2023-01-29T21:29:17.339Z,-3.85
2023-01-29T21:34:40.855Z,-3.81
2023-01-29T21:40:02.683Z,-3.83
2023-01-29T21:45:24.950Z,-3.77
2023-01-29T21:50:49.349Z,-3.62
2023-01-29T21:56:11.349Z,-3.77
2023-01-29T22:01:38.043Z,-3.78
2023-01-29T22:07:00.509Z,-3.80
2023-01-29T22:12:24.734Z,-3.82
2023-01-29T22:17:46.827Z,-3.85
2023-01-29T22:23:10.767Z,-3.82
2023-01-29T22:28:33.034Z,-3.74
2023-01-29T22:33:55.075Z,-3.92
2023-01-29T22:39:17.168Z,-3.85
2023-01-29T22:44:39.895Z,-3.85
2023-01-29T22:50:04.713Z,-3.72
2023-01-29T22:55:29.715Z,-4.11
2023-01-29T23:00:51.874Z,-3.78
2023-01-29T23:06:15.143Z,-3.78
2023-01-29T23:11:37.196Z,-3.73
2023-01-29T23:16:58.968Z,-3.80
2023-01-29T23:22:21.444Z,-3.78
2023-01-29T23:27:43.477Z,-3.68
2023-01-29T23:33:05.524Z,-3.74
2023-01-29T23:38:27.276Z,-3.71
2023-01-29T23:43:49.771Z,-3.66
2023-01-29T23:49:13.469Z,-3.63
2023-01-29T23:54:35.589Z,-3.72
2023-01-29T23:59:57.647Z,-3.64
